Time;durP1;ratioP1;P1;durP2;ratioP2;P2;SDS_P1;SDS_P2;PMS_P1;PMS_P2;Temp;Humidity;BMP_temperature;BMP_pressure;BME280_temperature;BME280_humidity;BME280_pressure;Samples;Min_cycle;Max_cycle;Signal;HPM_P1;HPM_P2
2022/05/27 00:01:26;;;;;;;11.90;2.65;;;;;;;;;;5051313;28;20021;-74
2022/05/27 00:03:52;;;;;;;8.02;2.70;;;;;;;;;;5049920;28;20483;-74
2022/05/27 00:06:19;;;;;;;12.80;3.30;;;;;;;;;;5051287;28;20529;-74
2022/05/27 00:08:45;;;;;;;16.38;3.30;;;;;;;;;;5051196;28;20363;-74
2022/05/27 00:11:15;;;;;;;11.32;3.90;;;;;;;;;;5050939;28;20431;-74
2022/05/27 00:13:41;;;;;;;13.80;4.40;;;;;;;;;;5051284;28;20037;-74
2022/05/27 00:16:07;;;;;;;17.10;4.38;;;;;;;;;;5051121;28;20025;-74
2022/05/27 00:18:33;;;;;;;18.30;3.95;;;;;;;;;;5051210;28;20482;-74
2022/05/27 00:20:59;;;;;;;13.27;3.70;;;;;;;;;;5051831;28;20127;-74
2022/05/27 00:23:26;;;;;;;13.93;3.88;;;;;;;;;;5055053;28;20107;-74
2022/05/27 00:25:52;;;;;;;13.05;3.30;;;;;;;;;;5054732;28;20024;-74
2022/05/27 00:28:18;;;;;;;13.52;4.00;;;;;;;;;;5054809;28;20032;-74
2022/05/27 00:30:44;;;;;;;12.45;3.63;;;;;;;;;;5054696;28;20029;-74
2022/05/27 00:33:10;;;;;;;17.98;4.22;;;;;;;;;;5054890;28;20020;-73
2022/05/27 00:35:37;;;;;;;22.63;3.92;;;;;;;;;;5054814;28;20029;-74
2022/05/27 00:38:03;;;;;;;10.18;3.33;;;;;;;;;;5054879;28;20040;-74
2022/05/27 00:40:40;;;;;;;5.90;2.40;;;;;;;;;;5054586;28;20021;-74
2022/05/27 00:43:07;;;;;;;9.13;2.75;;;;;;;;;;5054643;28;20029;-74
2022/05/27 00:45:35;;;;;;;4.63;1.88;;;;;;;;;;5054528;28;20036;-74
2022/05/27 00:48:02;;;;;;;6.43;2.38;;;;;;;;;;5054607;28;20134;-74
2022/05/27 00:50:30;;;;;;;5.70;2.05;;;;;;;;;;5054477;28;20021;-73
2022/05/27 00:52:56;;;;;;;10.32;2.72;;;;;;;;;;5054439;28;20033;-74
2022/05/27 00:55:25;;;;;;;6.43;1.60;;;;;;;;;;5054392;28;20025;-73
2022/05/27 00:57:58;;;;;;;6.57;2.42;;;;;;;;;;5054404;28;20033;-73
2022/05/27 01:00:25;;;;;;;5.57;1.98;;;;;;;;;;5054166;28;20352;-73
2022/05/27 01:02:52;;;;;;;2.85;1.67;;;;;;;;;;5054313;28;20033;-73
2022/05/27 01:05:19;;;;;;;3.97;1.90;;;;;;;;;;5054197;28;20128;-73
2022/05/27 01:07:45;;;;;;;4.28;1.80;;;;;;;;;;5054161;28;20074;-74
2022/05/27 01:10:13;;;;;;;6.10;2.33;;;;;;;;;;5053596;28;20513;-74
2022/05/27 01:12:39;;;;;;;9.05;2.60;;;;;;;;;;5053915;28;20040;-74
2022/05/27 01:15:23;;;;;;;9.05;2.42;;;;;;;;;;5053980;28;20021;-74
2022/05/27 01:18:08;;;;;;;11.05;2.97;;;;;;;;;;5053896;28;20025;-74
2022/05/27 01:20:34;;;;;;;10.55;2.88;;;;;;;;;;5053884;28;20029;-74
2022/05/27 01:23:03;;;;;;;5.00;2.65;;;;;;;;;;5053865;28;20037;-74
2022/05/27 01:25:48;;;;;;;10.25;2.92;;;;;;;;;;5053564;28;20017;-74
2022/05/27 01:28:17;;;;;;;9.25;2.78;;;;;;;;;;5053760;28;20469;-74
2022/05/27 01:30:45;;;;;;;9.85;3.10;;;;;;;;;;5053508;28;20435;-74
2022/05/27 01:33:23;;;;;;;9.80;2.88;;;;;;;;;;5052879;28;20052;-74
2022/05/27 01:36:08;;;;;;;10.02;3.15;;;;;;;;;;5053656;28;20108;-74
2022/05/27 01:38:54;;;;;;;9.90;3.13;;;;;;;;;;5053542;28;20027;-74
2022/05/27 01:41:20;;;;;;;8.10;2.42;;;;;;;;;;5053347;28;20017;-74
2022/05/27 01:43:52;;;;;;;9.55;2.22;;;;;;;;;;5053450;28;20471;-74
2022/05/27 01:46:22;;;;;;;7.95;2.63;;;;;;;;;;5053334;28;20471;-74
2022/05/27 01:48:48;;;;;;;11.02;3.38;;;;;;;;;;5053398;28;20056;-74
2022/05/27 01:51:24;;;;;;;8.77;2.50;;;;;;;;;;5053273;28;20534;-74
2022/05/27 01:53:50;;;;;;;10.40;3.10;;;;;;;;;;5053174;28;20060;-74
2022/05/27 01:56:19;;;;;;;8.48;2.50;;;;;;;;;;5053213;28;20375;-74
2022/05/27 01:58:49;;;;;;;8.35;2.55;;;;;;;;;;5053097;28;20013;-74
2022/05/27 02:01:17;;;;;;;7.82;3.05;;;;;;;;;;5053026;28;20644;-74
2022/05/27 02:03:45;;;;;;;8.80;2.80;;;;;;;;;;5053144;28;20032;-74
2022/05/27 02:06:14;;;;;;;13.00;3.33;;;;;;;;;;5052997;28;20025;-74
2022/05/27 02:08:50;;;;;;;10.88;2.72;;;;;;;;;;5052827;28;20040;-74
2022/05/27 02:11:17;;;;;;;14.18;3.38;;;;;;;;;;5052567;28;20044;-74
2022/05/27 02:14:03;;;;;;;11.63;3.50;;;;;;;;;;5052848;28;20125;-74
2022/05/27 02:16:36;;;;;;;9.65;2.55;;;;;;;;;;5052655;28;20510;-74
2022/05/27 02:19:05;;;;;;;11.77;2.90;;;;;;;;;;5052721;28;20017;-74
2022/05/27 02:21:34;;;;;;;9.93;2.97;;;;;;;;;;5052858;28;20021;-74
2022/05/27 02:24:13;;;;;;;8.88;3.00;;;;;;;;;;5052707;28;20075;-74
2022/05/27 02:26:42;;;;;;;6.05;2.55;;;;;;;;;;5052471;28;20139;-74
2022/05/27 02:29:10;;;;;;;10.82;3.08;;;;;;;;;;5052498;28;20029;-74
2022/05/27 02:31:38;;;;;;;9.18;2.70;;;;;;;;;;5052452;28;20333;-74
2022/05/27 02:36:53;;;;;;;11.38;3.45;;;;;;;;;;5052844;28;20116;-74
2022/05/27 02:39:20;;;;;;;8.25;2.78;;;;;;;;;;5052379;28;20042;-74
2022/05/27 02:42:04;;;;;;;10.88;2.83;;;;;;;;;;5052422;28;20032;-74
2022/05/27 02:44:42;;;;;;;10.68;2.75;;;;;;;;;;5052279;28;20032;-74
2022/05/27 02:47:08;;;;;;;6.47;3.00;;;;;;;;;;5052367;28;20028;-74
2022/05/27 02:49:34;;;;;;;8.63;2.58;;;;;;;;;;5052189;28;20017;-74
2022/05/27 02:52:04;;;;;;;14.70;3.17;;;;;;;;;;5052117;28;20083;-74
2022/05/27 02:54:32;;;;;;;10.45;2.72;;;;;;;;;;5052080;28;20036;-74
2022/05/27 02:57:07;;;;;;;9.45;2.85;;;;;;;;;;5052109;28;20024;-74
2022/05/27 02:59:35;;;;;;;10.05;2.95;;;;;;;;;;5040554;28;20030;-74
2022/05/27 03:02:05;;;;;;;13.98;3.42;;;;;;;;;;5032048;28;20021;-74
2022/05/27 03:04:31;;;;;;;12.50;2.97;;;;;;;;;;5047042;28;20020;-74
2022/05/27 03:07:06;;;;;;;7.93;2.60;;;;;;;;;;5051975;28;20033;-74
2022/05/27 03:09:43;;;;;;;15.90;3.60;;;;;;;;;;5051851;28;20029;-74
2022/05/27 03:12:25;;;;;;;9.93;2.88;;;;;;;;;;5051528;28;20184;-74
2022/05/27 03:15:07;;;;;;;9.68;3.00;;;;;;;;;;5051843;28;20025;-74
2022/05/27 03:17:33;;;;;;;7.70;3.15;;;;;;;;;;5051735;28;20437;-74
2022/05/27 03:20:09;;;;;;;11.07;3.22;;;;;;;;;;5051656;28;20079;-74
2022/05/27 03:22:49;;;;;;;13.15;2.92;;;;;;;;;;5050342;28;20078;-74
2022/05/27 03:25:21;;;;;;;11.43;3.58;;;;;;;;;;5051498;28;20476;-74
2022/05/27 03:28:00;;;;;;;6.97;2.60;;;;;;;;;;5052040;28;20033;-74
2022/05/27 03:30:33;;;;;;;14.00;3.28;;;;;;;;;;5052091;28;20029;-74
2022/05/27 03:33:14;;;;;;;10.45;2.92;;;;;;;;;;5052238;28;20036;-74
2022/05/27 03:35:44;;;;;;;11.73;3.57;;;;;;;;;;5052204;28;20025;-74
2022/05/27 03:38:19;;;;;;;11.88;3.08;;;;;;;;;;5052172;28;20463;-74
2022/05/27 03:40:49;;;;;;;12.30;3.30;;;;;;;;;;5051525;28;20044;-74
2022/05/27 03:43:15;;;;;;;13.20;3.38;;;;;;;;;;5050071;28;20017;-74
2022/05/27 03:46:08;;;;;;;9.07;3.30;;;;;;;;;;5051413;28;20634;-74
2022/05/27 03:48:35;;;;;;;12.10;3.25;;;;;;;;;;5050507;28;20056;-74
2022/05/27 03:51:05;;;;;;;8.88;3.20;;;;;;;;;;5051700;28;20036;-74
2022/05/27 03:56:16;;;;;;;11.98;3.65;;;;;;;;;;5052482;28;20165;-74
2022/05/27 03:58:42;;;;;;;10.95;3.50;;;;;;;;;;5055394;28;20120;-74
2022/05/27 04:01:08;;;;;;;11.07;3.53;;;;;;;;;;5055318;28;20127;-74
2022/05/27 04:03:34;;;;;;;17.58;3.70;;;;;;;;;;5055377;28;20017;-74
2022/05/27 04:06:00;;;;;;;10.52;3.15;;;;;;;;;;5055348;28;20079;-74
2022/05/27 04:08:26;;;;;;;16.75;4.00;;;;;;;;;;5055189;28;20043;-74
2022/05/27 04:10:52;;;;;;;8.52;3.78;;;;;;;;;;5055147;28;20052;-74
2022/05/27 04:13:18;;;;;;;16.90;4.07;;;;;;;;;;5055017;28;20065;-74
2022/05/27 04:15:44;;;;;;;12.70;4.00;;;;;;;;;;5054995;28;20360;-75
2022/05/27 04:18:10;;;;;;;14.73;4.30;;;;;;;;;;5055025;28;20039;-74
2022/05/27 04:20:36;;;;;;;16.98;3.75;;;;;;;;;;5055028;28;20017;-74
2022/05/27 04:23:02;;;;;;;13.05;3.90;;;;;;;;;;5055090;28;20033;-74
2022/05/27 04:25:28;;;;;;;13.07;4.07;;;;;;;;;;5054946;28;20021;-75
2022/05/27 04:27:54;;;;;;;15.63;3.75;;;;;;;;;;5055065;28;20068;-74
2022/05/27 04:30:20;;;;;;;14.23;4.20;;;;;;;;;;5054869;28;20025;-74
2022/05/27 04:32:46;;;;;;;18.17;3.75;;;;;;;;;;5054659;28;20685;-74
2022/05/27 04:35:12;;;;;;;11.52;3.60;;;;;;;;;;5054933;28;20053;-74
2022/05/27 04:37:39;;;;;;;9.88;3.72;;;;;;;;;;5054877;28;20379;-74
2022/05/27 04:40:05;;;;;;;13.23;3.47;;;;;;;;;;5054804;28;20063;-74
2022/05/27 04:42:31;;;;;;;11.68;4.15;;;;;;;;;;5054704;28;20032;-74
2022/05/27 04:44:57;;;;;;;16.65;3.95;;;;;;;;;;5054605;28;20166;-74
2022/05/27 04:47:23;;;;;;;12.40;3.55;;;;;;;;;;5054537;28;20029;-76
2022/05/27 04:49:56;;;;;;;10.52;3.95;;;;;;;;;;5054448;28;20025;-74
2022/05/27 04:52:22;;;;;;;;;;;;;;;;;;5054905;28;20053;-74
2022/05/27 04:54:48;;;;;;;13.43;3.85;;;;;;;;;;5054490;28;19946;-76
2022/05/27 04:57:16;;;;;;;18.52;4.18;;;;;;;;;;5054378;28;20436;-74
2022/05/27 04:59:45;;;;;;;11.23;3.78;;;;;;;;;;5054345;28;20355;-74
2022/05/27 05:02:11;;;;;;;12.52;4.00;;;;;;;;;;5054320;28;20021;-74
2022/05/27 05:04:37;;;;;;;12.30;3.65;;;;;;;;;;5054214;28;20029;-74
2022/05/27 05:07:06;;;;;;;18.90;5.07;;;;;;;;;;5053744;28;20021;-74
2022/05/27 05:09:32;;;;;;;12.68;3.78;;;;;;;;;;5053536;28;20093;-74
2022/05/27 05:11:58;;;;;;;13.43;3.95;;;;;;;;;;5053884;28;20138;-74
2022/05/27 05:14:24;;;;;;;18.42;4.10;;;;;;;;;;5054051;28;20021;-74
2022/05/27 05:16:51;;;;;;;17.13;4.15;;;;;;;;;;5054136;28;20021;-74
2022/05/27 05:19:17;;;;;;;14.38;4.03;;;;;;;;;;5053933;28;20462;-74
2022/05/27 05:21:43;;;;;;;12.52;3.85;;;;;;;;;;5053972;28;20475;-74
2022/05/27 05:24:09;;;;;;;21.70;4.55;;;;;;;;;;5053909;28;20121;-74
2022/05/27 05:26:35;;;;;;;13.38;4.00;;;;;;;;;;5053670;28;20027;-75
2022/05/27 05:29:02;;;;;;;14.65;3.80;;;;;;;;;;5053705;28;20021;-74
2022/05/27 05:31:28;;;;;;;11.43;3.63;;;;;;;;;;5053764;28;20361;-74
2022/05/27 05:33:59;;;;;;;17.73;3.50;;;;;;;;;;5053672;28;20418;-74
2022/05/27 05:36:25;;;;;;;9.27;3.17;;;;;;;;;;5053784;28;20122;-74
2022/05/27 05:38:51;;;;;;;13.45;3.00;;;;;;;;;;5053582;28;20083;-74
2022/05/27 05:41:29;;;;;;;13.82;3.25;;;;;;;;;;5053477;28;20041;-73
2022/05/27 05:43:55;;;;;;;13.20;3.83;;;;;;;;;;5053352;28;20402;-74
2022/05/27 05:46:22;;;;;;;13.98;3.88;;;;;;;;;;5053338;28;20440;-74
2022/05/27 05:48:48;;;;;;;14.18;2.95;;;;;;;;;;5053201;28;20179;-74
2022/05/27 05:51:14;;;;;;;7.00;2.50;;;;;;;;;;5053277;28;20036;-75
2022/05/27 05:53:40;;;;;;;10.88;3.13;;;;;;;;;;5053125;28;20021;-74
2022/05/27 05:56:06;;;;;;;12.27;2.63;;;;;;;;;;5053086;28;20092;-74
2022/05/27 05:58:32;;;;;;;10.43;2.55;;;;;;;;;;5053115;28;20075;-74
2022/05/27 06:00:58;;;;;;;11.57;2.45;;;;;;;;;;5052993;28;20028;-74
2022/05/27 06:03:24;;;;;;;11.27;2.17;;;;;;;;;;5052990;28;20031;-75
2022/05/27 06:05:51;;;;;;;11.82;2.58;;;;;;;;;;5053024;28;20478;-73
2022/05/27 06:08:18;;;;;;;11.73;2.30;;;;;;;;;;5053069;28;20029;-75
2022/05/27 06:10:45;;;;;;;8.82;1.90;;;;;;;;;;5053240;28;20037;-73
2022/05/27 06:13:11;;;;;;;9.32;2.38;;;;;;;;;;5052720;28;20152;-74
2022/05/27 06:15:37;;;;;;;7.70;1.98;;;;;;;;;;5052633;28;20056;-74
2022/05/27 06:18:06;;;;;;;14.02;2.15;;;;;;;;;;5052857;28;20029;-74
2022/05/27 06:20:32;;;;;;;5.45;1.73;;;;;;;;;;5052284;28;20536;-74
2022/05/27 06:22:58;;;;;;;7.82;2.13;;;;;;;;;;5052770;28;20471;-73
2022/05/27 06:25:25;;;;;;;7.50;1.58;;;;;;;;;;5052570;28;20052;-73
2022/05/27 06:34:23;;;;;;;10.48;2.13;;;;;;;;;;5052607;28;20033;-75
2022/05/27 06:36:07;;;;;;;7.93;1.83;;;;;;;;;;5052756;28;20091;-73
2022/05/27 06:38:33;;;;;;;9.77;1.60;;;;;;;;;;5052407;28;20029;-73
2022/05/27 06:40:59;;;;;;;10.43;2.10;;;;;;;;;;5052534;28;20439;-73
2022/05/27 06:43:25;;;;;;;7.50;2.30;;;;;;;;;;5051119;28;20037;-73
2022/05/27 06:45:51;;;;;;;8.02;1.50;;;;;;;;;;5052509;28;20029;-73
2022/05/27 06:48:17;;;;;;;14.90;2.08;;;;;;;;;;5052539;28;20029;-73
2022/05/27 06:50:43;;;;;;;13.65;1.88;;;;;;;;;;5052364;28;20352;-75
2022/05/27 06:53:09;;;;;;;10.02;1.67;;;;;;;;;;5052282;28;20044;-73
2022/05/27 06:55:35;;;;;;;6.82;1.80;;;;;;;;;;5051925;28;20063;-73
2022/05/27 06:58:01;;;;;;;8.43;1.40;;;;;;;;;;5052300;28;20028;-74
2022/05/27 07:00:27;;;;;;;10.10;1.40;;;;;;;;;;5052079;28;20028;-75
2022/05/27 07:02:53;;;;;;;8.18;1.15;;;;;;;;;;5052098;28;20033;-74
2022/05/27 07:05:19;;;;;;;11.23;1.50;;;;;;;;;;5052159;28;20021;-75
2022/05/27 07:07:45;;;;;;;9.60;1.33;;;;;;;;;;5052073;28;20039;-75
2022/05/27 07:10:11;;;;;;;10.77;1.50;;;;;;;;;;5052252;28;20044;-74
2022/05/27 07:12:39;;;;;;;10.38;1.40;;;;;;;;;;5051602;28;20049;-75
2022/05/27 07:15:05;;;;;;;6.95;1.20;;;;;;;;;;5051972;28;20486;-74
2022/05/27 07:17:31;;;;;;;5.95;1.15;;;;;;;;;;5051820;28;20060;-74
2022/05/27 07:19:57;;;;;;;13.20;2.08;;;;;;;;;;5051716;28;20060;-74
2022/05/27 07:22:25;;;;;;;9.55;1.48;;;;;;;;;;5051839;28;20033;-74
2022/05/27 07:24:51;;;;;;;9.02;1.67;;;;;;;;;;5051814;28;20028;-74
2022/05/27 07:27:18;;;;;;;8.25;1.65;;;;;;;;;;5051579;28;20034;-74
2022/05/27 07:29:44;;;;;;;11.98;1.50;;;;;;;;;;5051683;28;20028;-75
2022/05/27 07:32:10;;;;;;;12.25;1.75;;;;;;;;;;5050911;28;20444;-74
2022/05/27 07:34:36;;;;;;;11.18;2.17;;;;;;;;;;5051396;28;20027;-73
2022/05/27 07:37:02;;;;;;;9.20;1.70;;;;;;;;;;5051632;28;20104;-74
2022/05/27 07:39:28;;;;;;;8.75;1.70;;;;;;;;;;5051717;28;20387;-73
2022/05/27 07:41:54;;;;;;;9.23;1.95;;;;;;;;;;5051545;28;20028;-74
2022/05/27 07:44:20;;;;;;;7.90;1.30;;;;;;;;;;5051405;28;20121;-74
2022/05/27 07:46:46;;;;;;;13.07;1.48;;;;;;;;;;5051468;28;20029;-73
2022/05/27 07:49:12;;;;;;;12.73;1.70;;;;;;;;;;5051626;28;20056;-73
2022/05/27 07:51:38;;;;;;;11.50;2.25;;;;;;;;;;5051423;28;20027;-73
2022/05/27 07:54:04;;;;;;;12.48;2.72;;;;;;;;;;5051315;28;20061;-73
2022/05/27 07:56:30;;;;;;;5.78;1.42;;;;;;;;;;5050100;28;20086;-73
2022/05/27 07:58:57;;;;;;;11.40;1.73;;;;;;;;;;5051429;28;20024;-73
2022/05/27 08:01:23;;;;;;;13.23;1.70;;;;;;;;;;5051394;28;20033;-73
2022/05/27 08:03:49;;;;;;;12.80;1.80;;;;;;;;;;5051300;28;20363;-73
2022/05/27 08:06:15;;;;;;;17.25;3.25;;;;;;;;;;5051481;28;20033;-73
2022/05/27 08:08:41;;;;;;;7.43;1.30;;;;;;;;;;5051219;28;20029;-73
2022/05/27 08:11:07;;;;;;;9.07;1.88;;;;;;;;;;5050973;28;20032;-73
2022/05/27 08:13:34;;;;;;;9.40;1.63;;;;;;;;;;5051196;28;20056;-73
2022/05/27 08:16:00;;;;;;;9.98;1.83;;;;;;;;;;5051080;28;20025;-73
2022/05/27 08:18:27;;;;;;;11.50;1.70;;;;;;;;;;5051307;28;20021;-73
2022/05/27 08:20:53;;;;;;;13.07;2.38;;;;;;;;;;5051202;28;20115;-73
2022/05/27 08:23:19;;;;;;;12.25;1.60;;;;;;;;;;5051146;28;20511;-73
2022/05/27 08:25:46;;;;;;;14.02;1.58;;;;;;;;;;5050974;28;20025;-73
2022/05/27 08:28:12;;;;;;;7.53;1.63;;;;;;;;;;5051015;28;20029;-73
2022/05/27 08:30:40;;;;;;;10.32;1.67;;;;;;;;;;5051054;28;20028;-73
2022/05/27 08:33:06;;;;;;;11.13;1.90;;;;;;;;;;5051172;28;20017;-73
2022/05/27 08:38:27;;;;;;;10.88;1.90;;;;;;;;;;5051493;28;20043;-73
2022/05/27 08:40:59;;;;;;;11.57;1.98;;;;;;;;;;5050979;28;20033;-73
2022/05/27 08:43:38;;;;;;;10.48;1.67;;;;;;;;;;5053964;28;20094;-73
2022/05/27 08:46:16;;;;;;;13.32;1.90;;;;;;;;;;5054690;28;20043;-73
2022/05/27 08:48:43;;;;;;;6.65;1.60;;;;;;;;;;5054861;28;20025;-73
2022/05/27 08:51:15;;;;;;;7.63;1.73;;;;;;;;;;5054671;28;20039;-73
2022/05/27 08:53:59;;;;;;;7.13;1.75;;;;;;;;;;5054663;28;20021;-73
2022/05/27 08:59:31;;;;;;;14.57;1.65;;;;;;;;;;5054662;28;20193;-73
2022/05/27 09:02:16;;;;;;;12.77;2.22;;;;;;;;;;5054376;28;20021;-73
2022/05/27 09:04:44;;;;;;;10.85;2.10;;;;;;;;;;5054289;28;20024;-74
2022/05/27 09:07:30;;;;;;;8.65;1.77;;;;;;;;;;5054431;28;20033;-73
2022/05/27 09:09:56;;;;;;;8.73;1.95;;;;;;;;;;5054490;28;20135;-73
2022/05/27 09:12:25;;;;;;;8.40;1.58;;;;;;;;;;5054032;28;20099;-73
2022/05/27 09:15:00;;;;;;;10.95;1.58;;;;;;;;;;5054239;28;20033;-73
2022/05/27 09:17:34;;;;;;;11.25;1.77;;;;;;;;;;5054224;28;20033;-73
2022/05/27 09:20:11;;;;;;;8.63;1.77;;;;;;;;;;5054221;28;20474;-73
2022/05/27 09:22:52;;;;;;;8.10;1.25;;;;;;;;;;5054187;28;20431;-73
2022/05/27 09:25:18;;;;;;;6.05;1.40;;;;;;;;;;5053928;28;20490;-74
2022/05/27 09:27:57;;;;;;;10.35;1.90;;;;;;;;;;5053952;28;20029;-73
2022/05/27 09:30:23;;;;;;;8.07;2.17;;;;;;;;;;5053847;28;20029;-73
2022/05/27 09:32:52;;;;;;;15.60;1.83;;;;;;;;;;5053702;28;20074;-73
2022/05/27 09:35:30;;;;;;;7.15;1.60;;;;;;;;;;5053884;28;20523;-73
2022/05/27 09:38:00;;;;;;;11.50;1.50;;;;;;;;;;5053764;28;20085;-73
2022/05/27 09:40:48;;;;;;;11.63;1.95;;;;;;;;;;5053746;28;20021;-73
2022/05/27 09:43:17;;;;;;;10.95;1.80;;;;;;;;;;5053673;28;20107;-73
2022/05/27 09:45:43;;;;;;;7.38;1.70;;;;;;;;;;5052091;28;20426;-73
2022/05/27 09:48:10;;;;;;;9.32;1.70;;;;;;;;;;5053542;28;20422;-73
2022/05/27 09:50:47;;;;;;;10.13;1.80;;;;;;;;;;5053500;28;20415;-73
2022/05/27 09:53:18;;;;;;;7.53;1.95;;;;;;;;;;5053203;28;20036;-74
2022/05/27 09:55:48;;;;;;;5.88;1.42;;;;;;;;;;5053102;28;20044;-73
2022/05/27 09:58:14;;;;;;;8.82;1.42;;;;;;;;;;5053320;28;20031;-73
2022/05/27 10:00:50;;;;;;;9.32;2.30;;;;;;;;;;5053179;28;20029;-73
2022/05/27 10:03:22;;;;;;;10.55;1.73;;;;;;;;;;5053457;28;20025;-73
2022/05/27 10:05:50;;;;;;;6.72;1.48;;;;;;;;;;5053363;28;20029;-73
2022/05/27 10:08:25;;;;;;;10.02;1.50;;;;;;;;;;5053340;28;20040;-73
2022/05/27 10:11:05;;;;;;;9.88;1.50;;;;;;;;;;5052846;28;20033;-73
2022/05/27 10:13:34;;;;;;;8.85;1.50;;;;;;;;;;5052908;28;20480;-73
2022/05/27 10:16:10;;;;;;;10.32;1.85;;;;;;;;;;5053018;28;20047;-73
2022/05/27 10:18:36;;;;;;;13.52;1.90;;;;;;;;;;5053069;28;20379;-73
2022/05/27 10:21:05;;;;;;;7.88;1.50;;;;;;;;;;5052866;28;20482;-73
2022/05/27 10:23:35;;;;;;;7.53;1.52;;;;;;;;;;5053002;28;20021;-73
2022/05/27 10:26:27;;;;;;;8.82;1.38;;;;;;;;;;5052877;28;20398;-73
2022/05/27 10:28:58;;;;;;;8.70;1.95;;;;;;;;;;5051671;28;20048;-73
2022/05/27 10:31:24;;;;;;;8.90;1.63;;;;;;;;;;5052580;28;20029;-73
2022/05/27 10:33:51;;;;;;;6.43;1.65;;;;;;;;;;5052687;28;20025;-74
2022/05/27 10:36:31;;;;;;;10.23;2.00;;;;;;;;;;5052753;28;20460;-73
2022/05/27 10:39:03;;;;;;;11.50;1.80;;;;;;;;;;5052656;28;20480;-73
2022/05/27 10:41:44;;;;;;;12.65;2.05;;;;;;;;;;5052481;28;20375;-73
2022/05/27 10:44:29;;;;;;;9.30;1.90;;;;;;;;;;5052504;28;20033;-73
2022/05/27 10:46:57;;;;;;;10.32;1.80;;;;;;;;;;5052430;28;20391;-73
2022/05/27 10:49:34;;;;;;;7.20;1.67;;;;;;;;;;5052441;28;20057;-73
2022/05/27 10:52:03;;;;;;;9.43;1.38;;;;;;;;;;5052351;28;20029;-73
2022/05/27 10:54:47;;;;;;;8.40;1.52;;;;;;;;;;5052240;28;20115;-73
2022/05/27 11:03:23;;;;;;;9.77;1.73;;;;;;;;;;5052519;28;20067;-73
2022/05/27 11:06:08;;;;;;;14.90;1.50;;;;;;;;;;5051308;28;20412;-74
2022/05/27 11:08:34;;;;;;;16.17;1.92;;;;;;;;;;5052284;28;20136;-74
2022/05/27 11:11:17;;;;;;;15.57;1.77;;;;;;;;;;5052358;28;20025;-73
2022/05/27 11:16:46;;;;;;;9.65;1.80;;;;;;;;;;5052039;28;20040;-74
2022/05/27 11:19:12;;;;;;;11.52;2.53;;;;;;;;;;5051962;28;20162;-73
2022/05/27 11:21:46;;;;;;;6.40;1.48;;;;;;;;;;5052073;28;20074;-74
2022/05/27 11:24:31;;;;;;;12.25;1.85;;;;;;;;;;5051963;28;20112;-73
2022/05/27 11:27:04;;;;;;;5.80;1.13;;;;;;;;;;5051672;28;20028;-73
2022/05/27 11:29:45;;;;;;;5.45;1.40;;;;;;;;;;5051866;28;20432;-73
2022/05/27 11:32:17;;;;;;;9.98;1.40;;;;;;;;;;5051640;28;20021;-73
2022/05/27 11:34:43;;;;;;;8.20;1.15;;;;;;;;;;5051870;28;20044;-73
2022/05/27 11:37:15;;;;;;;10.70;2.00;;;;;;;;;;5051737;28;20028;-73
2022/05/27 11:39:47;;;;;;;;;;;;;;;;;;5052200;28;20036;-74
2022/05/27 11:42:32;;;;;;;9.52;2.08;;;;;;;;;;5051763;28;19909;-73
2022/05/27 11:45:01;;;;;;;13.10;1.60;;;;;;;;;;5051697;28;20033;-73
2022/05/27 11:47:33;;;;;;;15.32;1.90;;;;;;;;;;5051585;28;20036;-74
2022/05/27 11:50:02;;;;;;;12.07;2.08;;;;;;;;;;5051497;28;20025;-73
2022/05/27 11:52:51;;;;;;;8.27;2.38;;;;;;;;;;5051611;28;20087;-74
2022/05/27 11:55:29;;;;;;;9.38;1.38;;;;;;;;;;5051608;28;20017;-73
2022/05/27 11:58:05;;;;;;;5.85;1.50;;;;;;;;;;5051895;28;20048;-73
2022/05/27 12:00:35;;;;;;;9.20;1.10;;;;;;;;;;5051810;28;20031;-73
2022/05/27 12:03:10;;;;;;;13.25;1.92;;;;;;;;;;5052012;28;20057;-73
2022/05/27 12:05:41;;;;;;;7.60;1.50;;;;;;;;;;5051912;28;20029;-73
2022/05/27 12:08:22;;;;;;;11.23;1.55;;;;;;;;;;5051991;28;20029;-74
2022/05/27 12:11:07;;;;;;;6.97;1.55;;;;;;;;;;5051740;28;20830;-74
2022/05/27 12:13:33;;;;;;;10.10;1.52;;;;;;;;;;5051348;28;20444;-73
2022/05/27 12:16:20;;;;;;;9.18;2.00;;;;;;;;;;5051341;28;20017;-74
2022/05/27 12:18:58;;;;;;;7.15;1.65;;;;;;;;;;5054843;28;20017;-74
2022/05/27 12:21:26;;;;;;;8.27;1.23;;;;;;;;;;5055263;28;20021;-73
2022/05/27 12:24:09;;;;;;;9.10;1.75;;;;;;;;;;5055233;28;20037;-74
2022/05/27 12:26:36;;;;;;;8.52;1.63;;;;;;;;;;5055041;28;20029;-73
2022/05/27 12:29:04;;;;;;;9.23;1.85;;;;;;;;;;5055081;28;20028;-74
2022/05/27 12:31:32;;;;;;;8.60;1.58;;;;;;;;;;5055010;28;20053;-74
2022/05/27 12:33:58;;;;;;;8.23;1.77;;;;;;;;;;5053553;28;20435;-74
2022/05/27 12:36:28;;;;;;;5.88;0.98;;;;;;;;;;5055064;28;20079;-74
2022/05/27 12:38:57;;;;;;;10.68;1.95;;;;;;;;;;5054994;28;20490;-74
2022/05/27 12:41:32;;;;;;;5.70;1.17;;;;;;;;;;5054883;28;20025;-74
2022/05/27 12:44:00;;;;;;;9.43;1.60;;;;;;;;;;5054708;28;20490;-74
2022/05/27 12:46:44;;;;;;;13.52;1.77;;;;;;;;;;5054843;28;20036;-74
2022/05/27 12:49:25;;;;;;;7.07;1.17;;;;;;;;;;5054750;28;20034;-74
2022/05/27 12:51:52;;;;;;;9.43;1.65;;;;;;;;;;5054710;28;20494;-74
2022/05/27 12:54:37;;;;;;;9.48;1.17;;;;;;;;;;5054511;28;20025;-75
2022/05/27 13:03:38;;;;;;;9.52;1.65;;;;;;;;;;5052535;28;20692;-74
2022/05/27 13:06:11;;;;;;;10.70;2.28;;;;;;;;;;5054448;28;20037;-75
2022/05/27 13:08:48;;;;;;;10.27;1.40;;;;;;;;;;5054394;28;20033;-74
2022/05/27 13:11:37;;;;;;;5.60;1.17;;;;;;;;;;5053986;28;20038;-74
2022/05/27 13:14:03;;;;;;;7.50;1.20;;;;;;;;;;5054064;28;20029;-74
2022/05/27 13:16:41;;;;;;;14.05;1.65;;;;;;;;;;5054098;28;20025;-74
2022/05/27 13:19:09;;;;;;;7.75;1.20;;;;;;;;;;5054262;28;20040;-74
2022/05/27 13:21:40;;;;;;;10.52;1.48;;;;;;;;;;5054202;28;20309;-74
2022/05/27 13:24:11;;;;;;;7.50;1.58;;;;;;;;;;5054117;28;20033;-74
2022/05/27 13:26:42;;;;;;;7.55;1.52;;;;;;;;;;5053888;28;20033;-74
2022/05/27 13:29:27;;;;;;;9.32;1.67;;;;;;;;;;5052819;28;20025;-74
2022/05/27 13:31:59;;;;;;;7.93;1.52;;;;;;;;;;5053955;28;20086;-74
2022/05/27 13:34:46;;;;;;;9.63;1.33;;;;;;;;;;5053798;28;20025;-73
2022/05/27 13:37:38;;;;;;;10.15;1.30;;;;;;;;;;5054038;28;20029;-74
2022/05/27 13:40:08;;;;;;;9.15;1.63;;;;;;;;;;5031438;28;20041;-74
2022/05/27 13:42:36;;;;;;;14.05;1.88;;;;;;;;;;5031392;28;20029;-74
2022/05/27 13:45:08;;;;;;;7.50;1.95;;;;;;;;;;5031530;28;20037;-74
2022/05/27 13:47:36;;;;;;;7.30;1.13;;;;;;;;;;5031314;28;20456;-74
2022/05/27 13:50:02;;;;;;;8.35;1.40;;;;;;;;;;5031315;28;20037;-74
2022/05/27 13:52:39;;;;;;;11.90;1.50;;;;;;;;;;5031246;28;20034;-74
2022/05/27 13:55:10;;;;;;;7.00;1.20;;;;;;;;;;5031159;28;20096;-74
2022/05/27 13:57:37;;;;;;;13.77;1.60;;;;;;;;;;5031223;28;20029;-74
2022/05/27 14:00:05;;;;;;;11.95;1.75;;;;;;;;;;5030960;28;20036;-74
2022/05/27 14:02:34;;;;;;;8.38;1.45;;;;;;;;;;5031063;28;20034;-74
2022/05/27 14:05:06;;;;;;;7.82;1.58;;;;;;;;;;5030963;28;20040;-74
2022/05/27 14:07:42;;;;;;;7.60;1.50;;;;;;;;;;5031123;28;20034;-74
2022/05/27 14:10:09;;;;;;;9.27;1.08;;;;;;;;;;5030762;28;20042;-74
2022/05/27 14:12:37;;;;;;;8.20;1.48;;;;;;;;;;5030642;28;20161;-75
2022/05/27 14:15:08;;;;;;;9.07;1.75;;;;;;;;;;5030921;28;20088;-75
2022/05/27 14:17:39;;;;;;;6.22;1.52;;;;;;;;;;5032690;28;20033;-74
2022/05/27 14:20:07;;;;;;;7.05;1.52;;;;;;;;;;5033017;28;20410;-74
2022/05/27 14:22:42;;;;;;;11.27;1.65;;;;;;;;;;5033084;28;20053;-74
2022/05/27 14:25:08;;;;;;;6.50;1.85;;;;;;;;;;5034648;28;20101;-75
2022/05/27 14:27:40;;;;;;;6.40;1.40;;;;;;;;;;5051703;28;20123;-75
2022/05/27 14:30:06;;;;;;;7.45;1.27;;;;;;;;;;5052803;28;20467;-75
2022/05/27 14:32:33;;;;;;;7.97;1.30;;;;;;;;;;5052679;28;20053;-75
2022/05/27 14:35:01;;;;;;;9.98;1.70;;;;;;;;;;5052698;28;20032;-75
2022/05/27 14:37:30;;;;;;;11.85;1.90;;;;;;;;;;5052851;28;20112;-74
2022/05/27 14:40:01;;;;;;;11.18;1.65;;;;;;;;;;5052324;28;20032;-74
2022/05/27 14:42:27;;;;;;;5.53;1.63;;;;;;;;;;5052654;28;20029;-74
2022/05/27 14:44:53;;;;;;;11.15;1.77;;;;;;;;;;5052494;28;20036;-74
2022/05/27 14:47:22;;;;;;;12.25;1.65;;;;;;;;;;5052386;28;20029;-74
2022/05/27 14:49:52;;;;;;;10.05;1.33;;;;;;;;;;5052433;28;20025;-74
2022/05/27 14:52:26;;;;;;;12.95;1.42;;;;;;;;;;5052358;28;20039;-75
2022/05/27 14:54:54;;;;;;;11.38;1.70;;;;;;;;;;5052325;28;20078;-75
2022/05/27 14:57:24;;;;;;;14.82;1.75;;;;;;;;;;5052343;28;20025;-74
2022/05/27 14:59:59;;;;;;;6.22;1.33;;;;;;;;;;5052050;28;20021;-75
2022/05/27 15:02:29;;;;;;;7.70;1.45;;;;;;;;;;5052331;28;20452;-75
2022/05/27 15:04:57;;;;;;;8.50;1.40;;;;;;;;;;5052120;28;20114;-75
2022/05/27 15:07:29;;;;;;;6.40;1.33;;;;;;;;;;5052127;28;20021;-74
2022/05/27 15:09:55;;;;;;;;;;;;;;;;;;5052642;28;20023;-75
2022/05/27 15:12:25;;;;;;;5.95;1.30;;;;;;;;;;5051895;28;19921;-75
2022/05/27 15:14:51;;;;;;;8.77;1.55;;;;;;;;;;5052073;28;20039;-75
2022/05/27 15:17:38;;;;;;;6.75;1.33;;;;;;;;;;5052004;28;20024;-75
2022/05/27 15:20:04;;;;;;;6.22;1.15;;;;;;;;;;5051995;28;20032;-75
2022/05/27 15:22:32;;;;;;;8.20;1.80;;;;;;;;;;5051929;28;20029;-75
2022/05/27 15:25:00;;;;;;;9.50;1.70;;;;;;;;;;5051750;28;20033;-74
2022/05/27 15:33:27;;;;;;;6.00;1.45;;;;;;;;;;5043168;28;20037;-75
2022/05/27 15:35:56;;;;;;;7.78;1.63;;;;;;;;;;5051859;28;20029;-75